Chadron, NE

7:53 AM MDT on May 24, 2015 (GMT -0600)
Chadron Municipal | | Change Station
CLOSE
Current Station
Airport
Location: Chadron,
Elevation: 3297 ft
Nearby Weather Stations

Elev 3297 ft 42.84 °N, 103.10 °W | Updated 1 hour ago

Rain
Rain
52 °F
Feels Like 52 °F
N
5
Wind Variable Wind from ENE

Today
High -- | Low -- °F
--% Chance of Precip.
Yesterday
High -- | Low -- °F
Precip. -- in
5:22 AM 8:16 PM
Waxing Crescent, 39% visible
Pressure 29.92 in
Visibility 3.0 miles
Clouds Overcast 5500 ft
Dew Point 51 °F
Humidity 97%
Rainfall 0.28 in
Snow Depth Not available.
UV 0 out of 12
Pollen 1.80 out of 12
Air Quality Not available.
Flu Activity No Activity
METAR KCDR 241253Z AUTO 07004KT 3SM RA BR OVC055 11/11 A2992 RMK AO2 SLP131 P0011 T01110106

More Conditions Fewer Conditions

Pressure 29.92 in
Visibility 3.0 miles
Clouds Overcast 5500 ft
Dew Point 51 °F
Humidity 97%
Rainfall 0.28 in
Snow Depth Not available.
UV 0 out of 12
Pollen 1.80 out of 12
Air Quality Not available.
Flu Activity No Activity
METAR KCDR 241253Z AUTO 07004KT 3SM RA BR OVC055 11/11 A2992 RMK AO2 SLP131 P0011 T01110106

More Conditions Fewer Conditions

10-Day Weather Forecast

Almanac

Astronomy

May. 24, 2015 Rise Set
Actual Time
Civil Twilight
Nautical Twilight
Astronomical Twilight
Moon
Length of Visible Light
Length of Day
Tomorrow will be .
, % of the Moon is Illuminated

Today's Extremes

State Highs State Lows

Community

WunderPhotos

Upload Photos

1,823,738 photos uploaded!

WunderBlogs® & News

Nearby

Air Quality

  Air Quality AQ Index Pollutant
Not available.

Snow Depth

Station Depth Elevation

Earthquake Activity

City Distance Mag. Time & Date
Minimum magnitude displayed is 2.5.

Coastal Water Temperatures

Place Temperature

Stations

Nearby Weather Stations

Station Location Temp. Windchill Dew Point Humidity Wind Precip. Elev Updated Type